N4964P KAPC-KTRK
Flight info
| Callsign | N4964P |
|---|---|
| Flight time | 1h 10m |
| Altitude | 7500 |
| Route | VFR |
| Aircraft | C152/L-SF/C |
Departure
| Time | 2026-04-24 23:16 |
|---|---|
| Airport | Napa County Airport (KAPC) |
Arrival
| Time | 2026-04-25 00:27 |
|---|---|
| Airport | Truckee Tahoe Airport (KTRK) |
| Time | Latitude | Longitude | Altitude | Speed | Heading |
|---|---|---|---|---|---|
| 2026-04-24 23:06 | 38.21269 | -122.27095 | 35 ft | 0 kts | 64° |
| 2026-04-24 23:09 | 38.21276 | -122.27086 | 35 ft | 4 kts | 17° |
| 2026-04-24 23:09 | 38.21311 | -122.27117 | 35 ft | 7 kts | 265° |
| 2026-04-24 23:09 | 38.21287 | -122.27178 | 34 ft | 7 kts | 245° |
| 2026-04-24 23:09 | 38.21263 | -122.27236 | 34 ft | 7 kts | 244° |
| 2026-04-24 23:10 | 38.21227 | -122.27250 | 34 ft | 7 kts | 152° |
| 2026-04-24 23:10 | 38.21182 | -122.27204 | 34 ft | 8 kts | 117° |
| 2026-04-24 23:10 | 38.21169 | -122.27183 | 34 ft | 0 kts | 243° |
| 2026-04-24 23:14 | 38.21162 | -122.27196 | 34 ft | 4 kts | 224° |
| 2026-04-24 23:14 | 38.21124 | -122.27181 | 35 ft | 8 kts | 153° |
| 2026-04-24 23:15 | 38.21079 | -122.27185 | 35 ft | 7 kts | 257° |
| 2026-04-24 23:15 | 38.21034 | -122.27440 | 32 ft | 55 kts | 258° |
| 2026-04-24 23:15 | 38.20950 | -122.27959 | 179 ft | 63 kts | 251° |
| 2026-04-24 23:15 | 38.20849 | -122.28516 | 351 ft | 65 kts | 249° |
| 2026-04-24 23:16 | 38.20744 | -122.29086 | 512 ft | 71 kts | 256° |
| 2026-04-24 23:16 | 38.20667 | -122.29753 | 675 ft | 80 kts | 255° |
| 2026-04-24 23:16 | 38.20425 | -122.30381 | 845 ft | 83 kts | 217° |
| 2026-04-24 23:16 | 38.19841 | -122.30459 | 1033 ft | 88 kts | 166° |
| 2026-04-24 23:17 | 38.19446 | -122.29851 | 1214 ft | 99 kts | 101° |
| 2026-04-24 23:17 | 38.19524 | -122.28951 | 1362 ft | 105 kts | 81° |
| 2026-04-24 23:17 | 38.19664 | -122.28046 | 1520 ft | 107 kts | 79° |
| 2026-04-24 23:17 | 38.19827 | -122.27125 | 1692 ft | 105 kts | 79° |
| 2026-04-24 23:18 | 38.19982 | -122.26210 | 1859 ft | 105 kts | 79° |
| 2026-04-24 23:18 | 38.20134 | -122.25298 | 2006 ft | 105 kts | 80° |
| 2026-04-24 23:18 | 38.20283 | -122.24396 | 2144 ft | 105 kts | 79° |
| 2026-04-24 23:18 | 38.20455 | -122.23472 | 2274 ft | 106 kts | 73° |
| 2026-04-24 23:19 | 38.20766 | -122.22618 | 2414 ft | 106 kts | 61° |
| 2026-04-24 23:19 | 38.21192 | -122.21852 | 2550 ft | 105 kts | 50° |
| 2026-04-24 23:19 | 38.21692 | -122.21150 | 2672 ft | 106 kts | 47° |
| 2026-04-24 23:19 | 38.22168 | -122.20444 | 2825 ft | 104 kts | 50° |
| 2026-04-24 23:20 | 38.22621 | -122.19708 | 2948 ft | 105 kts | 52° |
| 2026-04-24 23:20 | 38.23078 | -122.18973 | 3085 ft | 104 kts | 50° |
| 2026-04-24 23:20 | 38.23537 | -122.18259 | 3202 ft | 104 kts | 51° |
| 2026-04-24 23:20 | 38.23991 | -122.17544 | 3329 ft | 104 kts | 52° |
| 2026-04-24 23:21 | 38.24414 | -122.16786 | 3447 ft | 104 kts | 56° |
| 2026-04-24 23:21 | 38.24800 | -122.16007 | 3558 ft | 104 kts | 61° |
| 2026-04-24 23:21 | 38.25144 | -122.15199 | 3698 ft | 102 kts | 62° |
| 2026-04-24 23:21 | 38.25481 | -122.14395 | 3815 ft | 102 kts | 63° |
| 2026-04-24 23:22 | 38.25833 | -122.13625 | 3981 ft | 98 kts | 58° |
| 2026-04-24 23:22 | 38.26203 | -122.12894 | 4109 ft | 99 kts | 57° |
| 2026-04-24 23:22 | 38.26574 | -122.12157 | 4230 ft | 99 kts | 59° |
| 2026-04-24 23:22 | 38.26925 | -122.11400 | 4362 ft | 98 kts | 60° |
| 2026-04-24 23:23 | 38.27277 | -122.10659 | 4490 ft | 98 kts | 59° |
| 2026-04-24 23:23 | 38.27633 | -122.09911 | 4612 ft | 98 kts | 59° |
| 2026-04-24 23:23 | 38.27984 | -122.09167 | 4740 ft | 97 kts | 60° |
| 2026-04-24 23:23 | 38.28331 | -122.08428 | 4858 ft | 97 kts | 60° |
| 2026-04-24 23:24 | 38.28648 | -122.07671 | 4972 ft | 97 kts | 63° |
| 2026-04-24 23:24 | 38.28960 | -122.06905 | 5089 ft | 97 kts | 64° |
| 2026-04-24 23:24 | 38.29264 | -122.06133 | 5205 ft | 97 kts | 64° |
| 2026-04-24 23:24 | 38.29561 | -122.05363 | 5333 ft | 96 kts | 65° |
| 2026-04-24 23:25 | 38.29847 | -122.04586 | 5449 ft | 96 kts | 65° |
| 2026-04-24 23:25 | 38.30116 | -122.03812 | 5567 ft | 95 kts | 68° |
| 2026-04-24 23:25 | 38.30402 | -122.03054 | 5677 ft | 96 kts | 63° |
| 2026-04-24 23:25 | 38.30716 | -122.02299 | 5792 ft | 96 kts | 63° |
| 2026-04-24 23:26 | 38.31046 | -122.01555 | 5908 ft | 95 kts | 60° |
| 2026-04-24 23:26 | 38.31415 | -122.00852 | 6035 ft | 94 kts | 57° |
| 2026-04-24 23:26 | 38.31784 | -122.00156 | 6149 ft | 95 kts | 57° |
| 2026-04-24 23:26 | 38.32161 | -121.99475 | 6275 ft | 94 kts | 55° |
| 2026-04-24 23:27 | 38.32534 | -121.98795 | 6390 ft | 94 kts | 56° |
| 2026-04-24 23:27 | 38.32912 | -121.98103 | 6514 ft | 94 kts | 55° |
| 2026-04-24 23:27 | 38.33287 | -121.97440 | 6660 ft | 93 kts | 53° |
| 2026-04-24 23:27 | 38.33678 | -121.96790 | 6803 ft | 92 kts | 52° |
| 2026-04-24 23:28 | 38.34067 | -121.96137 | 6936 ft | 92 kts | 53° |
| 2026-04-24 23:28 | 38.34450 | -121.95489 | 7075 ft | 91 kts | 54° |
| 2026-04-24 23:28 | 38.34828 | -121.94825 | 7194 ft | 93 kts | 54° |
| 2026-04-24 23:28 | 38.35207 | -121.94157 | 7331 ft | 92 kts | 56° |
| 2026-04-24 23:29 | 38.35585 | -121.93475 | 7451 ft | 94 kts | 54° |
| 2026-04-24 23:29 | 38.36017 | -121.92805 | 7474 ft | 103 kts | 48° |
| 2026-04-24 23:29 | 38.36546 | -121.92133 | 7493 ft | 109 kts | 44° |
| 2026-04-24 23:29 | 38.37130 | -121.91457 | 7477 ft | 114 kts | 42° |
| 2026-04-24 23:30 | 38.37722 | -121.90797 | 7484 ft | 112 kts | 41° |
| 2026-04-24 23:30 | 38.38319 | -121.90173 | 7486 ft | 110 kts | 40° |
| 2026-04-24 23:30 | 38.38882 | -121.89523 | 7484 ft | 109 kts | 45° |
| 2026-04-24 23:30 | 38.39420 | -121.88834 | 7485 ft | 108 kts | 47° |
| 2026-04-24 23:31 | 38.39927 | -121.88134 | 7483 ft | 107 kts | 49° |
| 2026-04-24 23:31 | 38.40416 | -121.87435 | 7478 ft | 106 kts | 50° |
| 2026-04-24 23:31 | 38.40913 | -121.86715 | 7470 ft | 106 kts | 50° |
| 2026-04-24 23:31 | 38.41397 | -121.86008 | 7462 ft | 107 kts | 49° |
| 2026-04-24 23:32 | 38.41883 | -121.85299 | 7468 ft | 106 kts | 52° |
| 2026-04-24 23:32 | 38.42332 | -121.84534 | 7465 ft | 106 kts | 54° |
| 2026-04-24 23:32 | 38.42759 | -121.83775 | 7461 ft | 107 kts | 56° |
| 2026-04-24 23:32 | 38.43174 | -121.82964 | 7457 ft | 108 kts | 59° |
| 2026-04-24 23:33 | 38.43542 | -121.82123 | 7456 ft | 109 kts | 62° |
| 2026-04-24 23:33 | 38.43771 | -121.81556 | 7469 ft | 108 kts | 64° |
| 2026-04-24 23:33 | 38.44236 | -121.80418 | 7494 ft | 106 kts | 63° |
| 2026-04-24 23:33 | 38.44568 | -121.79579 | 7492 ft | 106 kts | 64° |
| 2026-04-24 23:34 | 38.44900 | -121.78735 | 7480 ft | 107 kts | 64° |
| 2026-04-24 23:34 | 38.45222 | -121.77880 | 7478 ft | 106 kts | 66° |
| 2026-04-24 23:34 | 38.45527 | -121.77022 | 7468 ft | 106 kts | 66° |
| 2026-04-24 23:34 | 38.45832 | -121.76154 | 7457 ft | 107 kts | 68° |
| 2026-04-24 23:35 | 38.46114 | -121.75284 | 7463 ft | 106 kts | 66° |
| 2026-04-24 23:35 | 38.46449 | -121.74443 | 7475 ft | 105 kts | 62° |
| 2026-04-24 23:35 | 38.46800 | -121.73614 | 7475 ft | 106 kts | 63° |
| 2026-04-24 23:35 | 38.47146 | -121.72784 | 7479 ft | 106 kts | 61° |
| 2026-04-24 23:36 | 38.47514 | -121.71957 | 7487 ft | 106 kts | 62° |
| 2026-04-24 23:36 | 38.47882 | -121.71137 | 7495 ft | 106 kts | 60° |
| 2026-04-24 23:36 | 38.48259 | -121.70316 | 7492 ft | 107 kts | 60° |
| 2026-04-24 23:36 | 38.48618 | -121.69486 | 7490 ft | 108 kts | 62° |
| 2026-04-24 23:37 | 38.48994 | -121.68645 | 7499 ft | 108 kts | 60° |
| 2026-04-24 23:37 | 38.49379 | -121.67824 | 7494 ft | 108 kts | 59° |
| 2026-04-24 23:37 | 38.50193 | -121.66222 | 7508 ft | 106 kts | 58° |
| 2026-04-24 23:38 | 38.50580 | -121.65423 | 7508 ft | 106 kts | 59° |
| 2026-04-24 23:38 | 38.50953 | -121.64604 | 7505 ft | 106 kts | 61° |
| 2026-04-24 23:38 | 38.51327 | -121.63785 | 7501 ft | 107 kts | 60° |
| 2026-04-24 23:38 | 38.51702 | -121.62965 | 7508 ft | 106 kts | 60° |
| 2026-04-24 23:39 | 38.52074 | -121.62151 | 7494 ft | 107 kts | 60° |
| 2026-04-24 23:39 | 38.52476 | -121.61345 | 7502 ft | 107 kts | 58° |
| 2026-04-24 23:39 | 38.52903 | -121.60545 | 7495 ft | 108 kts | 56° |
| 2026-04-24 23:39 | 38.53338 | -121.59762 | 7498 ft | 108 kts | 56° |
| 2026-04-24 23:40 | 38.53780 | -121.58973 | 7493 ft | 109 kts | 54° |
| 2026-04-24 23:40 | 38.54234 | -121.58208 | 7504 ft | 108 kts | 52° |
| 2026-04-24 23:40 | 38.54702 | -121.57445 | 7500 ft | 108 kts | 54° |
| 2026-04-24 23:40 | 38.55162 | -121.56682 | 7501 ft | 108 kts | 53° |
| 2026-04-24 23:41 | 38.55624 | -121.55924 | 7502 ft | 108 kts | 53° |
| 2026-04-24 23:41 | 38.56090 | -121.55167 | 7506 ft | 108 kts | 52° |
| 2026-04-24 23:41 | 38.56563 | -121.54406 | 7514 ft | 107 kts | 52° |
| 2026-04-24 23:41 | 38.57038 | -121.53682 | 7520 ft | 107 kts | 51° |
| 2026-04-24 23:42 | 38.57521 | -121.52942 | 7508 ft | 108 kts | 52° |
| 2026-04-24 23:42 | 38.58000 | -121.52196 | 7503 ft | 108 kts | 51° |
| 2026-04-24 23:42 | 38.58492 | -121.51466 | 7501 ft | 109 kts | 49° |
| 2026-04-24 23:42 | 38.59005 | -121.50732 | 7493 ft | 110 kts | 48° |
| 2026-04-24 23:43 | 38.59515 | -121.50015 | 7497 ft | 110 kts | 49° |
| 2026-04-24 23:43 | 38.60015 | -121.49259 | 7500 ft | 110 kts | 51° |
| 2026-04-24 23:43 | 38.60482 | -121.48498 | 7506 ft | 109 kts | 55° |
| 2026-04-24 23:43 | 38.60914 | -121.47691 | 7507 ft | 109 kts | 57° |
| 2026-04-24 23:44 | 38.61341 | -121.46883 | 7520 ft | 108 kts | 57° |
| 2026-04-24 23:44 | 38.61740 | -121.46066 | 7528 ft | 107 kts | 60° |
| 2026-04-24 23:44 | 38.62119 | -121.45255 | 7529 ft | 107 kts | 61° |
| 2026-04-24 23:44 | 38.62489 | -121.44433 | 7528 ft | 107 kts | 61° |
| 2026-04-24 23:45 | 38.62876 | -121.43611 | 7523 ft | 107 kts | 59° |
| 2026-04-24 23:45 | 38.63273 | -121.42807 | 7521 ft | 107 kts | 58° |
| 2026-04-24 23:45 | 38.63689 | -121.42014 | 7518 ft | 108 kts | 57° |
| 2026-04-24 23:45 | 38.64119 | -121.41213 | 7517 ft | 108 kts | 57° |
| 2026-04-24 23:46 | 38.64531 | -121.40417 | 7517 ft | 108 kts | 57° |
| 2026-04-24 23:46 | 38.64972 | -121.39623 | 7520 ft | 108 kts | 53° |
| 2026-04-24 23:46 | 38.65451 | -121.38877 | 7517 ft | 109 kts | 52° |
| 2026-04-24 23:46 | 38.65919 | -121.38107 | 7519 ft | 109 kts | 54° |
| 2026-04-24 23:47 | 38.66371 | -121.37328 | 7518 ft | 109 kts | 55° |
| 2026-04-24 23:47 | 38.66809 | -121.36540 | 7523 ft | 109 kts | 56° |
| 2026-04-24 23:47 | 38.67231 | -121.35729 | 7525 ft | 108 kts | 59° |
| 2026-04-24 23:47 | 38.67639 | -121.34921 | 7522 ft | 109 kts | 58° |
| 2026-04-24 23:48 | 38.68057 | -121.34107 | 7527 ft | 108 kts | 60° |
| 2026-04-24 23:48 | 38.68445 | -121.33266 | 7516 ft | 109 kts | 62° |
| 2026-04-24 23:48 | 38.68824 | -121.32420 | 7516 ft | 108 kts | 63° |
| 2026-04-24 23:48 | 38.69204 | -121.31594 | 7515 ft | 108 kts | 61° |
| 2026-04-24 23:49 | 38.69596 | -121.30768 | 7508 ft | 109 kts | 60° |
| 2026-04-24 23:49 | 38.69994 | -121.29937 | 7506 ft | 109 kts | 61° |
| 2026-04-24 23:49 | 38.70360 | -121.29090 | 7505 ft | 109 kts | 64° |
| 2026-04-24 23:49 | 38.70717 | -121.28228 | 7504 ft | 109 kts | 64° |
| 2026-04-24 23:50 | 38.71063 | -121.27349 | 7502 ft | 110 kts | 66° |
| 2026-04-24 23:50 | 38.71385 | -121.26467 | 7508 ft | 109 kts | 65° |
| 2026-04-24 23:50 | 38.71760 | -121.25607 | 7511 ft | 109 kts | 61° |
| 2026-04-24 23:50 | 38.72165 | -121.24780 | 7515 ft | 109 kts | 59° |
| 2026-04-24 23:51 | 38.72589 | -121.23975 | 7527 ft | 109 kts | 57° |
| 2026-04-24 23:51 | 38.73044 | -121.23181 | 7540 ft | 109 kts | 55° |
| 2026-04-24 23:51 | 38.73479 | -121.22427 | 7651 ft | 104 kts | 54° |
| 2026-04-24 23:51 | 38.73907 | -121.21688 | 7762 ft | 100 kts | 56° |
| 2026-04-24 23:52 | 38.74310 | -121.20972 | 7867 ft | 99 kts | 54° |
| 2026-04-24 23:52 | 38.74724 | -121.20272 | 7975 ft | 98 kts | 53° |
| 2026-04-24 23:52 | 38.75137 | -121.19574 | 8078 ft | 98 kts | 55° |
| 2026-04-24 23:52 | 38.75542 | -121.18870 | 8186 ft | 98 kts | 53° |
| 2026-04-24 23:53 | 38.76021 | -121.18233 | 8283 ft | 99 kts | 45° |
| 2026-04-24 23:53 | 38.76538 | -121.17653 | 8412 ft | 97 kts | 42° |
| 2026-04-24 23:53 | 38.77047 | -121.17098 | 8536 ft | 96 kts | 41° |
| 2026-04-24 23:53 | 38.77567 | -121.16522 | 8619 ft | 98 kts | 45° |
| 2026-04-24 23:54 | 38.78020 | -121.15884 | 8730 ft | 97 kts | 52° |
| 2026-04-24 23:54 | 38.78417 | -121.15179 | 8836 ft | 96 kts | 59° |
| 2026-04-24 23:54 | 38.78757 | -121.14434 | 8933 ft | 96 kts | 61° |
| 2026-04-24 23:54 | 38.79112 | -121.13702 | 9040 ft | 96 kts | 59° |
| 2026-04-24 23:55 | 38.79463 | -121.12969 | 9149 ft | 96 kts | 58° |
| 2026-04-24 23:55 | 38.79828 | -121.12258 | 9260 ft | 96 kts | 56° |
| 2026-04-24 23:55 | 38.80224 | -121.11551 | 9361 ft | 96 kts | 54° |
| 2026-04-24 23:55 | 38.80620 | -121.10861 | 9453 ft | 97 kts | 56° |
| 2026-04-24 23:56 | 38.81015 | -121.10143 | 9481 ft | 103 kts | 57° |
| 2026-04-24 23:56 | 38.81439 | -121.09367 | 9500 ft | 108 kts | 56° |
| 2026-04-24 23:56 | 38.81883 | -121.08568 | 9497 ft | 112 kts | 57° |
| 2026-04-24 23:56 | 38.82323 | -121.07752 | 9488 ft | 111 kts | 58° |
| 2026-04-24 23:57 | 38.82763 | -121.06940 | 9495 ft | 110 kts | 57° |
| 2026-04-24 23:57 | 38.83205 | -121.06144 | 9508 ft | 108 kts | 56° |
| 2026-04-24 23:57 | 38.83643 | -121.05353 | 9502 ft | 109 kts | 57° |
| 2026-04-24 23:57 | 38.84083 | -121.04569 | 9512 ft | 108 kts | 55° |
| 2026-04-24 23:58 | 38.84541 | -121.03824 | 9519 ft | 108 kts | 52° |
| 2026-04-24 23:58 | 38.85037 | -121.03089 | 9517 ft | 109 kts | 50° |
| 2026-04-24 23:58 | 38.85540 | -121.02375 | 9525 ft | 108 kts | 50° |
| 2026-04-24 23:58 | 38.86056 | -121.01660 | 9503 ft | 109 kts | 49° |
| 2026-04-24 23:59 | 38.86568 | -121.00934 | 9494 ft | 108 kts | 51° |
| 2026-04-24 23:59 | 38.87053 | -121.00192 | 9490 ft | 108 kts | 52° |
| 2026-04-24 23:59 | 38.87513 | -120.99435 | 9497 ft | 108 kts | 55° |
| 2026-04-24 23:59 | 38.87972 | -120.98660 | 9502 ft | 108 kts | 56° |
| 2026-04-25 00:00 | 38.88407 | -120.97876 | 9516 ft | 108 kts | 57° |
| 2026-04-25 00:00 | 38.88828 | -120.97066 | 9521 ft | 108 kts | 60° |
| 2026-04-25 00:00 | 38.89211 | -120.96234 | 9528 ft | 107 kts | 63° |
| 2026-04-25 00:00 | 38.89561 | -120.95380 | 9524 ft | 107 kts | 65° |
| 2026-04-25 00:01 | 38.89880 | -120.94512 | 9531 ft | 107 kts | 66° |
| 2026-04-25 00:01 | 38.90182 | -120.93630 | 9532 ft | 107 kts | 68° |
| 2026-04-25 00:01 | 38.90467 | -120.92754 | 9528 ft | 107 kts | 70° |
| 2026-04-25 00:01 | 38.90744 | -120.91863 | 9533 ft | 106 kts | 69° |
| 2026-04-25 00:02 | 38.91007 | -120.90985 | 9542 ft | 106 kts | 70° |
| 2026-04-25 00:02 | 38.91302 | -120.90102 | 9557 ft | 106 kts | 67° |
| 2026-04-25 00:02 | 38.91629 | -120.89251 | 9552 ft | 107 kts | 63° |
| 2026-04-25 00:02 | 38.92004 | -120.88417 | 9553 ft | 107 kts | 61° |
| 2026-04-25 00:03 | 38.92402 | -120.87602 | 9544 ft | 108 kts | 61° |
| 2026-04-25 00:03 | 38.92764 | -120.86751 | 9545 ft | 107 kts | 66° |
| 2026-04-25 00:03 | 38.93065 | -120.85872 | 9556 ft | 107 kts | 69° |
| 2026-04-25 00:03 | 38.93360 | -120.85004 | 9561 ft | 107 kts | 70° |
| 2026-04-25 00:04 | 38.93645 | -120.84109 | 9566 ft | 107 kts | 70° |
| 2026-04-25 00:04 | 38.93917 | -120.83226 | 9578 ft | 107 kts | 70° |
| 2026-04-25 00:04 | 38.94229 | -120.82355 | 9597 ft | 107 kts | 65° |
| 2026-04-25 00:04 | 38.94555 | -120.81497 | 9599 ft | 107 kts | 66° |
| 2026-04-25 00:05 | 38.94884 | -120.80630 | 9607 ft | 107 kts | 66° |
| 2026-04-25 00:05 | 38.95222 | -120.79769 | 9607 ft | 108 kts | 65° |
| 2026-04-25 00:05 | 38.95575 | -120.78920 | 9622 ft | 107 kts | 62° |
| 2026-04-25 00:05 | 38.95937 | -120.78069 | 9615 ft | 108 kts | 65° |
| 2026-04-25 00:06 | 38.96299 | -120.77229 | 9630 ft | 108 kts | 62° |
| 2026-04-25 00:06 | 38.96670 | -120.76385 | 9628 ft | 108 kts | 63° |
| 2026-04-25 00:06 | 38.97026 | -120.75535 | 9616 ft | 109 kts | 65° |
| 2026-04-25 00:06 | 38.97370 | -120.74652 | 9596 ft | 110 kts | 64° |
| 2026-04-25 00:07 | 38.97735 | -120.73793 | 9577 ft | 110 kts | 63° |
| 2026-04-25 00:07 | 38.98126 | -120.72938 | 9570 ft | 110 kts | 62° |
| 2026-04-25 00:07 | 38.98525 | -120.72077 | 9547 ft | 111 kts | 60° |
| 2026-04-25 00:07 | 38.98936 | -120.71244 | 9546 ft | 111 kts | 58° |
| 2026-04-25 00:08 | 38.99373 | -120.70416 | 9558 ft | 111 kts | 57° |
| 2026-04-25 00:08 | 38.99817 | -120.69602 | 9553 ft | 111 kts | 57° |
| 2026-04-25 00:08 | 39.00262 | -120.68803 | 9546 ft | 112 kts | 53° |
| 2026-04-25 00:08 | 39.00748 | -120.68005 | 9560 ft | 111 kts | 53° |
| 2026-04-25 00:09 | 39.01226 | -120.67226 | 9559 ft | 111 kts | 53° |
| 2026-04-25 00:09 | 39.01726 | -120.66468 | 9565 ft | 110 kts | 48° |
| 2026-04-25 00:09 | 39.02264 | -120.65768 | 9571 ft | 109 kts | 46° |
| 2026-04-25 00:09 | 39.02810 | -120.65102 | 9583 ft | 107 kts | 45° |
| 2026-04-25 00:10 | 39.03335 | -120.64426 | 9586 ft | 107 kts | 46° |
| 2026-04-25 00:10 | 39.03866 | -120.63737 | 9579 ft | 109 kts | 46° |
| 2026-04-25 00:10 | 39.04398 | -120.63041 | 9580 ft | 110 kts | 47° |
| 2026-04-25 00:10 | 39.04934 | -120.62335 | 9568 ft | 112 kts | 46° |
| 2026-04-25 00:11 | 39.05502 | -120.61650 | 9569 ft | 112 kts | 45° |
| 2026-04-25 00:11 | 39.05883 | -120.61195 | 9569 ft | 112 kts | 42° |
| 2026-04-25 00:11 | 39.06625 | -120.60230 | 9561 ft | 113 kts | 51° |
| 2026-04-25 00:11 | 39.07130 | -120.59461 | 9574 ft | 112 kts | 50° |
| 2026-04-25 00:12 | 39.07643 | -120.58699 | 9569 ft | 113 kts | 49° |
| 2026-04-25 00:12 | 39.08166 | -120.57938 | 9559 ft | 114 kts | 50° |
| 2026-04-25 00:12 | 39.08678 | -120.57160 | 9580 ft | 112 kts | 50° |
| 2026-04-25 00:12 | 39.09182 | -120.56385 | 9567 ft | 114 kts | 50° |
| 2026-04-25 00:13 | 39.09702 | -120.55587 | 9551 ft | 115 kts | 50° |
| 2026-04-25 00:13 | 39.10222 | -120.54807 | 9555 ft | 114 kts | 49° |
| 2026-04-25 00:13 | 39.10737 | -120.54041 | 9554 ft | 114 kts | 49° |
| 2026-04-25 00:13 | 39.11255 | -120.53269 | 9562 ft | 113 kts | 47° |
| 2026-04-25 00:14 | 39.11779 | -120.52480 | 9550 ft | 115 kts | 50° |
| 2026-04-25 00:14 | 39.12266 | -120.51668 | 9561 ft | 114 kts | 54° |
| 2026-04-25 00:14 | 39.12719 | -120.50818 | 9561 ft | 114 kts | 58° |
| 2026-04-25 00:14 | 39.13124 | -120.49943 | 9555 ft | 115 kts | 62° |
| 2026-04-25 00:15 | 39.13514 | -120.49042 | 9562 ft | 114 kts | 60° |
| 2026-04-25 00:15 | 39.13931 | -120.48164 | 9557 ft | 115 kts | 59° |
| 2026-04-25 00:15 | 39.14341 | -120.47278 | 9546 ft | 115 kts | 59° |
| 2026-04-25 00:15 | 39.14754 | -120.46394 | 9559 ft | 114 kts | 57° |
| 2026-04-25 00:16 | 39.15168 | -120.45526 | 9568 ft | 113 kts | 58° |
| 2026-04-25 00:16 | 39.15591 | -120.44647 | 9558 ft | 115 kts | 58° |
| 2026-04-25 00:16 | 39.15973 | -120.43748 | 9568 ft | 114 kts | 61° |
| 2026-04-25 00:16 | 39.16349 | -120.42855 | 9570 ft | 114 kts | 60° |
| 2026-04-25 00:17 | 39.16741 | -120.41969 | 9572 ft | 114 kts | 58° |
| 2026-04-25 00:17 | 39.17141 | -120.41087 | 9565 ft | 114 kts | 57° |
| 2026-04-25 00:17 | 39.17562 | -120.40185 | 9509 ft | 118 kts | 58° |
| 2026-04-25 00:17 | 39.17981 | -120.39267 | 9406 ft | 122 kts | 59° |
| 2026-04-25 00:18 | 39.18407 | -120.38307 | 9332 ft | 121 kts | 60° |
| 2026-04-25 00:18 | 39.18817 | -120.37352 | 9261 ft | 121 kts | 57° |
| 2026-04-25 00:18 | 39.19305 | -120.36447 | 9161 ft | 123 kts | 51° |
| 2026-04-25 00:18 | 39.19830 | -120.35586 | 9111 ft | 121 kts | 48° |
| 2026-04-25 00:19 | 39.20356 | -120.34736 | 9092 ft | 119 kts | 50° |
| 2026-04-25 00:19 | 39.20874 | -120.33904 | 9083 ft | 119 kts | 47° |
| 2026-04-25 00:19 | 39.21424 | -120.33079 | 9080 ft | 119 kts | 51° |
| 2026-04-25 00:19 | 39.21833 | -120.32132 | 9032 ft | 123 kts | 68° |
| 2026-04-25 00:20 | 39.22082 | -120.31087 | 9017 ft | 122 kts | 75° |
| 2026-04-25 00:20 | 39.22292 | -120.30017 | 9008 ft | 119 kts | 75° |
| 2026-04-25 00:20 | 39.22486 | -120.28976 | 8980 ft | 122 kts | 79° |
| 2026-04-25 00:20 | 39.22669 | -120.27896 | 8924 ft | 125 kts | 78° |
| 2026-04-25 00:21 | 39.22846 | -120.26798 | 8881 ft | 126 kts | 80° |
| 2026-04-25 00:21 | 39.23033 | -120.25681 | 8735 ft | 128 kts | 75° |
| 2026-04-25 00:21 | 39.23272 | -120.24572 | 8609 ft | 128 kts | 75° |
| 2026-04-25 00:21 | 39.23516 | -120.23487 | 8414 ft | 128 kts | 70° |
| 2026-04-25 00:22 | 39.23904 | -120.22474 | 8262 ft | 124 kts | 53° |
| 2026-04-25 00:22 | 39.24496 | -120.21693 | 8090 ft | 122 kts | 38° |
| 2026-04-25 00:22 | 39.25140 | -120.20999 | 7920 ft | 120 kts | 36° |
| 2026-04-25 00:22 | 39.25771 | -120.20303 | 7803 ft | 119 kts | 39° |
| 2026-04-25 00:23 | 39.26395 | -120.19594 | 7656 ft | 119 kts | 38° |
| 2026-04-25 00:23 | 39.27015 | -120.18884 | 7513 ft | 118 kts | 39° |
| 2026-04-25 00:23 | 39.27605 | -120.18166 | 7387 ft | 119 kts | 40° |
| 2026-04-25 00:23 | 39.28207 | -120.17417 | 7258 ft | 119 kts | 41° |
| 2026-04-25 00:24 | 39.28798 | -120.16676 | 7114 ft | 115 kts | 39° |
| 2026-04-25 00:24 | 39.29392 | -120.15995 | 6992 ft | 112 kts | 36° |
| 2026-04-25 00:24 | 39.30036 | -120.15556 | 6985 ft | 99 kts | 355° |
| 2026-04-25 00:24 | 39.30633 | -120.15804 | 6957 ft | 86 kts | 318° |
| 2026-04-25 00:25 | 39.31076 | -120.16319 | 6902 ft | 86 kts | 307° |
| 2026-04-25 00:25 | 39.31529 | -120.16825 | 6860 ft | 85 kts | 310° |
| 2026-04-25 00:25 | 39.31965 | -120.17267 | 6827 ft | 80 kts | 313° |
| 2026-04-25 00:25 | 39.32521 | -120.17464 | 6695 ft | 86 kts | 2° |
| 2026-04-25 00:26 | 39.32977 | -120.16961 | 6491 ft | 90 kts | 57° |
| 2026-04-25 00:26 | 39.32949 | -120.16224 | 6215 ft | 82 kts | 134° |
| 2026-04-25 00:26 | 39.32648 | -120.15632 | 6011 ft | 76 kts | 125° |
| 2026-04-25 00:26 | 39.32397 | -120.15063 | 5911 ft | 66 kts | 129° |
| 2026-04-25 00:27 | 39.32200 | -120.14645 | 5902 ft | 41 kts | 117° |
| 2026-04-25 00:27 | 39.32086 | -120.14384 | 5898 ft | 28 kts | 122° |
| 2026-04-25 00:27 | 39.31997 | -120.14184 | 5896 ft | 20 kts | 122° |
| 2026-04-25 00:27 | 39.31940 | -120.14181 | 5896 ft | 3 kts | 213° |
| 2026-04-25 00:28 | 39.31929 | -120.14203 | 5897 ft | 3 kts | 265° |
| 2026-04-25 00:28 | 39.31949 | -120.14257 | 5897 ft | 9 kts | 299° |
| 2026-04-25 00:28 | 39.31983 | -120.14333 | 5897 ft | 10 kts | 297° |
| 2026-04-25 00:28 | 39.32020 | -120.14413 | 5898 ft | 10 kts | 309° |
| 2026-04-25 00:29 | 39.32050 | -120.14488 | 5900 ft | 8 kts | 296° |
| 2026-04-25 00:29 | 39.32062 | -120.14557 | 5901 ft | 7 kts | 208° |
| 2026-04-25 00:29 | 39.32027 | -120.14584 | 5902 ft | 5 kts | 209° |
| 2026-04-25 00:29 | 39.31990 | -120.14610 | 5902 ft | 7 kts | 210° |
| 2026-04-25 00:30 | 39.31955 | -120.14646 | 5903 ft | 5 kts | 271° |
| 2026-04-25 00:30 | 39.31970 | -120.14678 | 5903 ft | 4 kts | 5° |
| 2026-04-25 00:30 | 39.31982 | -120.14671 | 5903 ft | 0 kts | 30° |